Terminal Aerodrome Forecast
Issued by NWS

Home | Current Version | Previous Version | Graphics & Text | Print | Product List | Glossary On
Versions: 1 2 3 4 5 6 7 8 9 10 11 12 13 14 15 16 17 18 19 20 21 22 23
000
FTUS43 KBIS 271900 AAA
TAFMOT
TAF AMD
KMOT 271947Z 2720/2818 35018G26KT P6SM SCT250
     FM280100 36014KT P6SM BKN250
     FM280600 01014KT P6SM BKN120
     FM281400 01012KT P6SM VCSH OVC035=

USA.gov is the U.S. government's official web portal to all federal, state and local government web resources and services.